< < Back
Terminal Aerodrome Forecast


Current Version              Previous Versions:   1  2  3  4  5  6  7  8  9  

Terminal Aerodrome Forecast

516
FTUS42 KGSP 260858 AAA
TAFCLT
TAF AMD
KCLT 260858Z 2609/2706 16004KT P6SM BKN060
      TEMPO 2609/2613 5SM -RA SCT020 OVC050
     FM261300 26005KT P6SM OVC030
     FM261600 28006G15KT P6SM OVC050
     FM262000 31010G17KT P6SM BKN060
     FM270000 31011G18KT P6SM SCT110=



Latest METAR

689
SAUS70 KWBC 262200
MTRCLT
METAR KCLT 262152Z 04006KT 10SM BKN050 BKN095 BKN200 09/03 A2964 RMK AO2
SLP035 T00940028


USA.gov is the U.S. government's official web portal to all federal, state and local government web resources and services.